Time;durP1;ratioP1;P1;durP2;ratioP2;P2;SDS_P1;SDS_P2;PMS_P1;PMS_P2;Temp;Humidity;BMP_temperature;BMP_pressure;BME280_temperature;BME280_humidity;BME280_pressure;Samples;Min_cycle;Max_cycle;Signal;HPM_P1;HPM_P2
2022/08/06 00:02:19;;;;;;;1.33;0.83;;;21.70;99.90;;;22.48;56.98;102070.94;4999968;28;97589;-44
2022/08/06 00:04:46;;;;;;;0.50;0.50;;;21.80;99.90;;;22.52;57.31;102083.22;4995808;28;97490;-44
2022/08/06 00:07:12;;;;;;;2.90;1.10;;;21.90;99.90;;;22.55;56.18;102088.38;4994821;28;97542;-51
2022/08/06 00:09:38;;;;;;;1.37;0.80;;;21.90;99.90;;;22.56;56.75;102089.25;5001456;28;97014;-51
2022/08/06 00:12:05;;;;;;;2.43;1.13;;;21.90;99.90;;;22.54;55.52;102088.50;4993279;28;97787;-48
2022/08/06 00:14:32;;;;;;;1.80;1.07;;;21.80;99.90;;;22.49;56.38;102082.56;5008270;28;96946;-51
2022/08/06 00:16:59;;;;;;;2.30;1.23;;;21.80;99.90;;;22.43;54.87;102083.81;4994267;28;97287;-53
2022/08/06 00:19:26;;;;;;;0.77;0.60;;;21.60;99.90;;;22.37;56.53;102083.31;5003389;28;98461;-43
2022/08/06 00:21:53;;;;;;;4.50;1.00;;;21.50;99.90;;;22.27;57.27;102081.19;5003902;28;97608;-49
2022/08/06 00:24:20;;;;;;;1.83;1.07;;;21.40;99.90;;;22.27;57.26;102091.09;5001977;28;102710;-51
2022/08/06 00:26:46;;;;;;;0.80;0.80;;;21.40;99.90;;;22.26;57.15;102086.66;4995927;28;97203;-45
2022/08/06 00:29:13;;;;;;;0.60;0.57;;;21.40;99.90;;;22.20;57.69;102087.94;5000984;28;97183;-47
2022/08/06 00:31:39;;;;;;;2.40;1.63;;;21.30;99.90;;;22.17;55.72;102082.75;4994803;28;102764;-49
2022/08/06 00:34:05;;;;;;;3.27;1.50;;;21.30;99.90;;;22.12;56.43;102083.97;4993514;28;102419;-48
2022/08/06 00:36:32;;;;;;;0.93;0.80;;;21.20;99.90;;;22.09;57.51;102090.41;5012267;28;97148;-45
2022/08/06 00:39:02;;;;;;;1.70;1.20;;;21.20;99.90;;;22.04;57.71;102083.56;4994909;28;97390;-48
2022/08/06 00:41:30;;;;;;;2.17;0.90;;;21.10;99.90;;;22.05;58.30;102093.34;5014412;28;96734;-48
2022/08/06 00:43:57;;;;;;;1.40;0.90;;;21.10;99.90;;;22.06;58.39;102090.59;5013194;28;97557;-50
2022/08/06 00:46:23;;;;;;;1.07;0.97;;;21.20;99.90;;;22.08;57.75;102094.06;4977438;28;97476;-48
2022/08/06 00:48:49;;;;;;;1.40;0.80;;;21.20;99.90;;;22.04;58.29;102097.88;5004138;28;97028;-48
2022/08/06 00:51:15;;;;;;;1.10;0.90;;;21.20;99.90;;;22.02;57.71;102089.03;4982588;28;98151;-48
2022/08/06 00:53:41;;;;;;;0.80;0.80;;;21.20;99.90;;;21.99;58.27;102097.28;5012346;28;113542;-49
2022/08/06 00:56:08;;;;;;;2.47;1.07;;;21.00;99.90;;;22.00;58.38;102099.00;5003267;28;96954;-53
2022/08/06 00:58:34;;;;;;;1.20;0.93;;;21.10;99.90;;;22.04;58.38;102099.69;4982907;28;97751;-47
2022/08/06 01:01:00;;;;;;;0.87;0.70;;;21.20;99.90;;;22.08;58.22;102099.44;5007391;28;97521;-48
2022/08/06 01:03:26;;;;;;;0.73;0.70;;;21.30;99.90;;;22.16;58.21;102107.91;4977570;28;99592;-46
2022/08/06 01:05:51;;;;;;;0.87;0.73;;;21.40;99.90;;;22.20;58.32;102108.56;4995492;28;97464;-49
2022/08/06 01:08:18;;;;;;;0.70;0.67;;;21.50;99.90;;;22.25;58.01;102110.00;5009179;28;97365;-52
2022/08/06 01:10:44;;;;;;;0.93;0.80;;;21.50;99.90;;;22.29;57.78;102107.16;4999993;28;97702;-51
2022/08/06 01:13:10;;;;;;;0.80;0.67;;;21.60;99.90;;;22.36;57.62;102109.34;5002401;28;97291;-48
2022/08/06 01:15:40;;;;;;;0.60;0.50;;;21.70;99.90;;;22.42;57.28;102108.06;4994114;28;97158;-52
2022/08/06 01:18:19;;;;;;;1.43;0.80;;;21.80;99.90;;;22.46;56.57;102104.25;5002073;28;97262;-51
2022/08/06 01:21:13;;;;;;;0.87;0.77;;;21.80;99.90;;;22.47;56.99;102111.38;4998557;28;98076;-46
2022/08/06 01:24:19;;;;;;;1.13;0.70;;;21.80;99.90;;;22.46;57.29;102120.38;4997275;28;102024;-48
2022/08/06 01:27:40;;;;;;;1.17;0.80;;;21.80;99.90;;;22.47;57.13;102122.97;4998867;28;97187;-45
2022/08/06 01:30:13;;;;;;;0.87;0.70;;;21.80;99.90;;;22.48;57.51;102123.84;4981412;28;99344;-52
2022/08/06 01:33:13;;;;;;;1.20;0.70;;;21.80;99.90;;;22.51;57.09;102121.81;4982864;28;98776;-47
2022/08/06 01:35:44;;;;;;;0.70;0.57;;;21.80;99.90;;;22.50;56.52;102128.16;4981773;28;102832;-52
2022/08/06 01:38:29;;;;;;;0.90;0.70;;;21.80;99.90;;;22.50;57.01;102125.47;4991411;28;97014;-47
2022/08/06 01:40:57;;;;;;;0.70;0.70;;;21.80;99.90;;;22.48;56.88;102129.22;4989175;28;97099;-55
2022/08/06 01:43:26;;;;;;;0.67;0.60;;;21.80;99.90;;;22.47;56.62;102125.66;4988807;28;97329;-47
2022/08/06 01:45:54;;;;;;;0.73;0.60;;;21.80;99.90;;;22.47;56.55;102124.81;5005794;27;97004;-46
2022/08/06 01:48:26;;;;;;;0.60;0.60;;;21.70;99.90;;;22.42;56.99;102129.59;4984149;28;97303;-50
2022/08/06 01:50:57;;;;;;;1.00;0.83;;;21.60;99.90;;;22.33;57.46;102135.56;4990433;28;98134;-54
2022/08/06 01:53:36;;;;;;;0.57;0.57;;;21.50;99.90;;;22.34;57.35;102132.78;4993758;28;102016;-52
2022/08/06 01:56:06;;;;;;;0.70;0.70;;;21.50;99.90;;;22.32;57.05;102123.06;4986458;28;97191;-49
2022/08/06 01:58:38;;;;;;;1.60;0.63;;;21.50;99.90;;;22.30;57.06;102133.06;4980492;28;96827;-52
2022/08/06 02:01:10;;;;;;;1.73;1.27;;;21.40;99.90;;;22.23;57.39;102130.72;5001340;27;97446;-49
2022/08/06 02:03:44;;;;;;;0.63;0.57;;;21.30;99.90;;;22.26;57.78;102146.66;5002919;28;97227;-44
2022/08/06 02:06:16;;;;;;;1.83;0.80;;;21.40;99.90;;;22.23;57.54;102146.00;4998660;28;98667;-46
2022/08/06 02:08:44;;;;;;;0.83;0.77;;;21.40;99.90;;;22.18;57.89;102138.22;4997344;28;100017;-44
2022/08/06 02:11:11;;;;;;;0.70;0.70;;;21.30;99.90;;;22.23;57.97;102146.84;4980320;28;96845;-45
2022/08/06 02:13:38;;;;;;;0.80;0.60;;;21.50;99.90;;;22.28;57.89;102143.91;4992521;28;99111;-48
2022/08/06 02:16:07;;;;;;;1.13;0.80;;;21.60;99.90;;;22.34;57.36;102150.72;4986880;28;98632;-47
2022/08/06 02:18:40;;;;;;;0.70;0.70;;;21.60;99.90;;;22.40;57.51;102153.03;4992518;28;96838;-44
2022/08/06 02:21:10;;;;;;;0.70;0.57;;;21.70;99.90;;;22.43;57.40;102158.22;4987307;28;96907;-44
2022/08/06 02:23:37;;;;;;;1.23;0.70;;;21.80;99.90;;;22.48;57.24;102153.41;4980228;28;98126;-45
2022/08/06 02:26:04;;;;;;;1.20;0.77;;;21.90;99.90;;;22.53;57.17;102156.69;4987649;28;98908;-46
2022/08/06 02:28:33;;;;;;;0.70;0.60;;;21.90;99.90;;;22.54;56.49;102144.97;4987402;28;97236;-45
2022/08/06 02:31:00;;;;;;;1.37;0.57;;;21.90;99.90;;;22.54;56.67;102158.41;5006422;28;96857;-44
2022/08/06 02:33:26;;;;;;;0.60;0.60;;;21.90;99.90;;;22.53;56.57;102153.97;4995227;28;97162;-45
2022/08/06 02:36:04;;;;;;;0.63;0.63;;;21.80;99.90;;;22.51;56.82;102155.91;4988333;28;98354;-45
2022/08/06 02:38:53;;;;;;;0.93;0.67;;;21.80;99.90;;;22.49;56.73;102157.84;4983013;28;97456;-46
2022/08/06 02:41:30;;;;;;;1.30;0.90;;;21.80;99.90;;;22.47;56.99;102163.31;5005546;28;96974;-44
2022/08/06 02:44:06;;;;;;;1.23;0.53;;;21.70;99.90;;;22.44;56.64;102154.59;4997600;28;97285;-46
2022/08/06 02:46:40;;;;;;;2.07;0.90;;;21.60;99.90;;;22.40;56.46;102166.47;4991991;28;98053;-44
2022/08/06 02:49:26;;;;;;;0.93;0.70;;;21.50;99.90;;;22.31;56.69;102169.72;4985661;28;97272;-47
2022/08/06 02:52:03;;;;;;;1.73;1.00;;;21.30;99.90;;;22.24;56.72;102170.09;4981094;28;97229;-49
2022/08/06 02:54:42;;;;;;;2.77;0.90;;;21.30;99.90;;;22.21;57.78;102175.66;4978089;28;101820;-45
2022/08/06 02:57:17;;;;;;;5.10;1.00;;;21.30;99.90;;;22.21;57.62;102172.97;5003010;28;97595;-45
2022/08/06 02:59:50;;;;;;;1.10;0.70;;;21.30;99.90;;;22.18;57.10;102175.84;5001614;28;97124;-47
2022/08/06 03:02:19;;;;;;;1.47;0.63;;;21.30;99.90;;;22.14;57.73;102171.63;4992931;28;97032;-46
2022/08/06 03:04:48;;;;;;;0.90;0.90;;;21.30;99.90;;;22.11;57.92;102174.47;4996324;28;97293;-45
2022/08/06 03:07:15;;;;;;;0.83;0.67;;;21.30;99.90;;;22.12;57.80;102175.34;4992777;28;97533;-49
2022/08/06 03:09:47;;;;;;;1.20;0.60;;;21.30;99.90;;;22.13;57.90;102177.06;5014584;28;97153;-47
2022/08/06 03:12:15;;;;;;;0.63;0.57;;;21.30;99.90;;;22.17;58.02;102168.75;5011490;28;99142;-44
2022/08/06 03:14:42;;;;;;;0.63;0.60;;;21.40;99.90;;;22.19;57.62;102177.56;4999377;28;96894;-48
2022/08/06 03:17:11;;;;;;;4.60;0.90;;;21.50;99.90;;;22.19;57.13;102184.78;4995656;28;97238;-54
2022/08/06 03:19:38;;;;;;;0.63;0.57;;;21.40;99.90;;;22.18;57.74;102191.97;4984092;28;96887;-50
2022/08/06 03:22:06;;;;;;;1.07;0.80;;;21.40;99.90;;;22.16;57.46;102185.84;5003179;28;97045;-51
2022/08/06 03:24:34;;;;;;;1.03;0.77;;;21.40;99.90;;;22.16;57.63;102185.84;4997887;28;97071;-45
2022/08/06 03:27:02;;;;;;;0.97;0.87;;;21.40;99.90;;;22.16;57.81;102187.66;5003046;28;97212;-47
2022/08/06 03:29:28;;;;;;;2.00;0.60;;;21.40;99.90;;;22.18;57.82;102191.97;4992755;28;98296;-47
2022/08/06 03:31:56;;;;;;;1.20;0.83;;;21.40;99.90;;;22.19;57.49;102193.69;4974958;28;97590;-49
2022/08/06 03:34:24;;;;;;;3.97;1.20;;;21.50;99.90;;;22.14;57.04;102193.13;4979837;28;97649;-51
2022/08/06 03:36:51;;;;;;;1.67;1.17;;;21.30;99.90;;;22.09;57.18;102197.88;4989553;28;99565;-50
2022/08/06 03:39:17;;;;;;;0.80;0.60;;;21.20;99.90;;;22.08;57.91;102197.97;5001646;28;96728;-51
2022/08/06 03:41:45;;;;;;;0.97;0.60;;;21.20;99.90;;;22.09;58.17;102202.41;4978063;28;97396;-47
2022/08/06 03:44:10;;;;;;;0.70;0.60;;;21.20;99.90;;;22.10;57.94;102205.00;4985424;28;98255;-49
2022/08/06 03:47:09;;;;;;;1.20;0.73;;;21.30;99.90;;;22.15;57.76;102212.81;4996903;28;103800;-50
2022/08/06 03:50:20;;;;;;;0.40;0.40;;;21.40;99.90;;;22.11;57.47;102206.72;5005555;28;97136;-49
2022/08/06 03:52:59;;;;;;;0.70;0.50;;;21.30;99.90;;;22.07;57.91;102207.00;4888867;28;97156;-48
2022/08/06 03:55:29;;;;;;;2.07;0.67;;;21.20;99.90;;;22.02;57.97;102211.75;4992900;28;101624;-51
2022/08/06 03:58:04;;;;;;;1.30;0.80;;;21.10;99.90;;;22.01;57.75;102221.66;4986715;28;97390;-51
2022/08/06 04:00:38;;;;;;;1.10;0.60;;;21.10;99.90;;;22.00;57.85;102213.69;5006843;28;97042;-45
2022/08/06 04:03:05;;;;;;;0.93;0.70;;;21.10;99.90;;;21.96;57.94;102216.53;5001589;28;97057;-48
2022/08/06 04:05:33;;;;;;;4.23;1.43;;;21.00;99.90;;;21.91;58.15;102217.75;5005252;28;97427;-49
2022/08/06 04:08:05;;;;;;;1.43;0.80;;;20.90;99.90;;;21.90;57.78;102224.09;4984643;28;98123;-48
2022/08/06 04:10:38;;;;;;;0.97;0.77;;;20.90;99.90;;;21.87;58.33;102225.16;5012356;28;97588;-53
2022/08/06 04:13:09;;;;;;;0.80;0.80;;;20.90;99.90;;;21.86;58.52;102225.25;5008617;28;97154;-47
2022/08/06 04:15:37;;;;;;;0.70;0.70;;;20.80;99.90;;;21.85;58.38;102224.38;4997602;28;97589;-48
2022/08/06 04:18:08;;;;;;;2.20;1.07;;;20.90;99.90;;;21.84;58.32;102227.97;5003397;28;97348;-48
2022/08/06 04:20:35;;;;;;;0.80;0.50;;;20.90;99.90;;;21.82;58.13;102226.34;4997280;28;97269;-47
2022/08/06 04:23:02;;;;;;;0.60;0.53;;;20.80;99.90;;;21.80;58.40;102230.94;4984580;28;97067;-47
2022/08/06 04:25:36;;;;;;;0.87;0.70;;;20.80;99.90;;;21.81;58.66;102230.00;5003528;28;97629;-48
2022/08/06 04:28:04;;;;;;;1.53;0.90;;;20.80;99.90;;;21.80;57.93;102231.81;4984584;28;97317;-48
2022/08/06 04:30:33;;;;;;;1.07;0.73;;;20.90;99.90;;;21.78;58.69;102231.03;4996227;28;96667;-50
2022/08/06 04:33:02;;;;;;;2.87;1.20;;;20.80;99.90;;;21.74;58.12;102228.63;4975723;28;97598;-50
2022/08/06 04:35:30;;;;;;;0.80;0.80;;;20.70;99.90;;;21.74;58.63;102239.38;5010290;28;96534;-47
2022/08/06 04:37:57;;;;;;;0.80;0.80;;;20.70;99.90;;;21.76;58.69;102237.47;4980092;28;97186;-51
2022/08/06 04:40:25;;;;;;;1.23;0.83;;;20.80;99.90;;;21.78;58.76;102243.59;4984727;28;97167;-46
2022/08/06 04:42:51;;;;;;;0.97;0.60;;;20.80;99.90;;;21.77;58.54;102240.06;4994045;28;97541;-53
2022/08/06 04:45:18;;;;;;;1.03;1.00;;;20.90;99.90;;;21.77;58.09;102244.56;4984793;28;97521;-52
2022/08/06 04:47:45;;;;;;;1.93;1.00;;;20.80;99.90;;;21.71;58.22;102239.56;4982868;28;99879;-50
2022/08/06 04:50:11;;;;;;;1.03;0.70;;;20.70;99.90;;;21.69;58.70;102248.53;4990250;28;97677;-49
2022/08/06 04:52:37;;;;;;;1.37;0.77;;;20.70;99.90;;;21.66;58.84;102251.41;4995984;28;97676;-50
2022/08/06 04:55:04;;;;;;;0.77;0.73;;;20.60;99.90;;;21.69;59.10;102253.91;4973058;28;97503;-47
2022/08/06 04:57:29;;;;;;;0.80;0.70;;;20.70;99.90;;;21.75;58.77;102257.22;4995862;28;97741;-49
2022/08/06 04:59:55;;;;;;;1.60;0.80;;;20.90;99.90;;;21.80;58.50;102255.13;4993037;28;97053;-51
2022/08/06 05:02:21;;;;;;;1.83;0.77;;;21.00;99.90;;;21.85;58.24;102256.59;4994555;28;97106;-47
2022/08/06 05:04:55;;;;;;;1.77;0.90;;;21.00;99.90;;;21.86;58.24;102260.16;5011237;28;96902;-49
2022/08/06 05:07:28;;;;;;;2.63;1.17;;;21.10;99.90;;;21.83;57.91;102258.50;4993360;28;102760;-48
2022/08/06 05:09:58;;;;;;;1.17;0.77;;;20.90;99.90;;;21.81;58.07;102267.59;4989380;28;97376;-47
2022/08/06 05:12:45;;;;;;;1.37;1.00;;;20.80;99.90;;;21.82;58.14;102266.63;5014269;28;97166;-50
2022/08/06 05:15:29;;;;;;;1.00;0.90;;;20.80;99.90;;;21.82;58.28;102269.31;4993029;28;98054;-48
2022/08/06 05:18:13;;;;;;;3.33;1.33;;;20.90;99.90;;;21.81;58.21;102268.47;4984118;28;97380;-55
2022/08/06 05:20:41;;;;;;;2.07;1.70;;;20.90;99.90;;;21.79;57.36;102269.50;4997359;28;97033;-47
2022/08/06 05:23:13;;;;;;;2.03;1.20;;;20.80;99.90;;;21.76;57.40;102269.69;5012176;28;97129;-51
2022/08/06 05:25:39;;;;;;;2.83;1.60;;;20.70;99.90;;;21.71;57.51;102269.09;5001808;28;98088;-51
2022/08/06 05:28:06;;;;;;;5.33;1.80;;;20.60;99.90;;;21.63;54.47;102270.38;4981082;28;97825;-47
2022/08/06 05:30:32;;;;;;;2.97;1.90;;;20.50;99.90;;;21.61;57.07;102276.81;5001830;28;97744;-46
2022/08/06 05:32:58;;;;;;;4.13;2.17;;;20.50;99.90;;;21.56;55.19;102279.75;4995905;28;97323;-48
2022/08/06 05:35:25;;;;;;;3.47;2.10;;;20.40;99.90;;;21.48;57.43;102276.63;5007133;28;104535;-44
2022/08/06 05:37:51;;;;;;;5.13;1.73;;;20.30;99.90;;;21.47;57.96;102280.25;5006105;28;96991;-44
2022/08/06 05:40:17;;;;;;;2.03;1.00;;;20.30;99.90;;;21.53;59.08;102289.78;5012405;28;96715;-45
2022/08/06 05:42:43;;;;;;;2.20;1.50;;;20.40;99.90;;;21.53;58.73;102290.63;5018506;28;96884;-44
2022/08/06 05:45:11;;;;;;;1.83;1.00;;;20.50;99.90;;;21.53;58.42;102285.28;5013872;28;98407;-44
2022/08/06 05:47:41;;;;;;;6.83;2.27;;;20.50;99.90;;;21.51;57.27;102281.81;4990618;28;96792;-44
2022/08/06 05:50:10;;;;;;;3.00;1.83;;;20.50;99.90;;;21.49;58.07;102294.47;5003265;28;97022;-43
2022/08/06 05:52:55;;;;;;;2.20;1.47;;;20.40;99.90;;;21.52;58.43;102294.28;5000111;28;96980;-43
2022/08/06 05:55:44;;;;;;;7.93;2.63;;;20.50;99.90;;;21.50;55.25;102292.63;4982721;28;100192;-45
2022/08/06 05:58:18;;;;;;;2.27;1.30;;;20.50;99.90;;;21.50;58.39;102293.50;4997611;28;97057;-46
2022/08/06 06:00:45;;;;;;;3.70;1.70;;;20.50;99.90;;;21.47;57.82;102304.41;4992503;28;97129;-45
2022/08/06 06:03:16;;;;;;;4.00;2.33;;;20.40;99.90;;;21.48;56.16;102292.72;4993281;28;97575;-46
2022/08/06 06:05:42;;;;;;;5.87;2.70;;;20.40;99.90;;;21.32;54.84;102295.41;4981892;28;97695;-45
2022/08/06 06:08:09;;;;;;;7.67;2.60;;;20.30;99.90;;;21.32;53.33;102298.09;5002626;28;96922;-43
2022/08/06 06:10:37;;;;;;;1.87;1.20;;;20.30;99.90;;;21.39;58.90;102298.59;4985593;28;97379;-46
2022/08/06 06:13:05;;;;;;;1.40;0.90;;;20.40;99.90;;;21.50;59.33;102296.19;4980705;28;97064;-45
2022/08/06 06:15:38;;;;;;;1.20;1.10;;;20.60;99.90;;;21.56;58.85;102305.75;4991650;28;97889;-45
2022/08/06 06:18:47;;;;;;;7.17;2.60;;;20.70;99.90;;;21.58;52.83;102307.38;4978864;28;97912;-47
2022/08/06 06:21:46;;;;;;;3.10;2.00;;;20.80;99.90;;;21.62;58.32;102306.25;4978092;28;97521;-43
2022/08/06 06:24:31;;;;;;;4.37;2.73;;;20.80;99.90;;;21.55;52.50;102310.22;5011603;28;97214;-44
2022/08/06 06:27:05;;;;;;;7.77;3.10;;;20.70;99.90;;;21.33;56.41;102312.38;4994191;28;97125;-45
2022/08/06 06:29:40;;;;;;;5.17;2.73;;;20.40;99.90;;;21.37;53.57;102301.38;4988639;28;97637;-43
2022/08/06 06:32:50;;;;;;;3.23;1.67;;;20.50;99.90;;;21.46;58.85;102318.78;5008942;27;97145;-45
2022/08/06 06:35:42;;;;;;;7.37;2.93;;;20.60;99.90;;;21.46;50.44;102307.19;5002027;28;97487;-48
2022/08/06 06:38:59;;;;;;;2.70;1.03;;;20.70;99.90;;;21.59;58.50;102310.94;4981810;28;97483;-44
2022/08/06 06:42:07;;;;;;;7.57;2.50;;;20.80;99.90;;;21.66;57.19;102313.16;4950113;28;101827;-46
2022/08/06 06:44:46;;;;;;;1.37;1.10;;;21.00;99.90;;;21.84;57.90;102313.06;4994629;28;97055;-46
2022/08/06 06:47:21;;;;;;;7.17;2.37;;;21.20;99.90;;;21.85;47.78;102314.84;4994642;28;97079;-42
2022/08/06 06:49:55;;;;;;;1.00;0.90;;;21.30;99.90;;;21.83;57.77;102314.91;4994053;28;97443;-46
2022/08/06 06:52:30;;;;;;;7.00;2.70;;;21.10;99.90;;;21.80;50.95;102324.97;4990471;28;99760;-46
2022/08/06 06:55:12;;;;;;;5.07;1.83;;;21.10;99.90;;;21.84;51.54;102323.81;4984524;28;97502;-43
2022/08/06 06:58:22;;;;;;;6.80;2.50;;;21.10;99.90;;;21.71;47.64;102326.38;4989446;28;97609;-47
2022/08/06 07:00:49;;;;;;;4.80;2.57;;;21.00;99.90;;;21.64;47.43;102333.88;4992104;28;102940;-45
2022/08/06 07:03:19;;;;;;;4.87;2.50;;;20.90;99.90;;;21.77;49.56;102333.19;4983827;28;99189;-46
2022/08/06 07:05:47;;;;;;;7.33;2.37;;;21.10;99.90;;;21.71;48.35;102336.25;4979760;28;97433;-47
2022/08/06 07:08:18;;;;;;;5.90;2.43;;;21.10;99.90;;;21.75;56.33;102332.41;4987410;28;97181;-45
2022/08/06 07:10:45;;;;;;;6.30;2.43;;;21.00;99.90;;;21.72;46.94;102340.66;4996884;28;99645;-45
2022/08/06 07:13:12;;;;;;;3.27;1.20;;;21.20;99.90;;;21.81;57.34;102343.66;5010266;28;97325;-47
2022/08/06 07:15:40;;;;;;;5.47;2.73;;;21.10;99.90;;;21.69;54.50;102345.22;5000199;28;97132;-45
2022/08/06 07:18:07;;;;;;;4.83;2.37;;;21.00;99.90;;;21.72;50.15;102348.72;4978517;28;96998;-48
2022/08/06 07:20:34;;;;;;;3.47;1.30;;;21.00;99.90;;;21.74;57.37;102347.66;4987276;28;97026;-45
2022/08/06 07:23:07;;;;;;;4.57;2.03;;;21.00;99.90;;;21.73;50.62;102353.13;4985238;28;97375;-45
2022/08/06 07:25:40;;;;;;;4.73;2.27;;;21.10;99.90;;;21.76;55.13;102350.25;4995195;28;97255;-50
2022/08/06 07:28:10;;;;;;;4.30;2.00;;;21.10;99.90;;;21.79;48.35;102356.31;4986387;28;96807;-46
2022/08/06 07:30:37;;;;;;;4.33;1.80;;;21.20;99.90;;;21.75;47.11;102353.91;5001320;28;97193;-48
2022/08/06 07:33:04;;;;;;;5.13;2.23;;;21.20;99.90;;;21.52;46.79;102353.34;4979984;28;96908;-44
2022/08/06 07:35:31;;;;;;;3.63;1.50;;;20.90;99.90;;;21.58;56.70;102353.03;5014377;28;97486;-47
2022/08/06 07:38:01;;;;;;;4.73;1.80;;;20.90;99.90;;;21.43;47.03;102364.59;4995465;28;97027;-46
2022/08/06 07:40:40;;;;;;;7.20;2.07;;;20.80;99.90;;;21.38;56.08;102350.53;4989144;28;97195;-45
2022/08/06 07:43:23;;;;;;;8.30;2.00;;;20.70;99.90;;;21.52;50.65;102345.28;4979060;28;97500;-46
2022/08/06 07:45:52;;;;;;;1.20;1.07;;;20.90;99.90;;;21.64;57.59;102347.31;4997385;28;98523;-47
2022/08/06 07:48:24;;;;;;;2.30;1.23;;;21.10;99.90;;;21.77;56.41;102347.50;4991720;28;97262;-44
2022/08/06 07:50:53;;;;;;;3.37;1.47;;;21.30;99.90;;;21.83;55.91;102351.63;4986125;28;97785;-45
2022/08/06 07:53:20;;;;;;;2.03;1.07;;;21.30;99.90;;;21.85;55.91;102344.38;4991136;28;101372;-45
2022/08/06 07:55:47;;;;;;;3.67;1.10;;;21.30;99.90;;;22.07;54.32;102350.28;4988793;28;97294;-47
2022/08/06 07:58:14;;;;;;;2.63;1.13;;;21.60;99.90;;;22.08;50.83;102356.53;4984843;28;96918;-47
2022/08/06 08:00:40;;;;;;;3.70;1.47;;;21.60;99.90;;;22.17;54.74;102343.44;4989440;28;97620;-46
2022/08/06 08:08:37;;;;;;;3.73;1.60;;;21.80;99.10;;;22.02;46.21;102343.41;4992023;28;97643;-50
2022/08/06 08:11:03;;;;;;;5.20;1.43;;;21.50;99.40;;;21.96;53.11;102341.94;5011821;28;98834;-45
2022/08/06 08:13:31;;;;;;;3.67;1.70;;;21.40;99.90;;;22.06;47.41;102353.94;5008805;28;98699;-45
2022/08/06 08:15:58;;;;;;;4.87;1.80;;;21.50;99.90;;;22.03;45.60;102350.53;5002977;28;97294;-49
2022/08/06 08:18:32;;;;;;;6.10;1.50;;;21.50;99.80;;;22.00;52.57;102348.88;4990563;28;97490;-48
2022/08/06 08:21:02;;;;;;;6.07;1.37;;;21.40;99.90;;;22.02;46.46;102346.97;5011972;28;99240;-47
2022/08/06 08:23:32;;;;;;;5.33;1.30;;;21.50;99.20;;;22.03;46.27;102354.06;5000377;28;98431;-46
2022/08/06 08:26:01;;;;;;;3.00;1.40;;;21.50;99.50;;;22.09;48.83;102347.50;4985079;28;96995;-45
2022/08/06 08:28:27;;;;;;;4.10;1.40;;;21.60;99.90;;;22.07;46.38;102350.28;5001387;28;97414;-47
2022/08/06 08:30:53;;;;;;;3.17;1.60;;;21.50;98.90;;;21.97;44.33;102338.28;5000877;28;97061;-44
2022/08/06 08:33:20;;;;;;;3.87;1.53;;;21.40;98.60;;;22.05;45.03;102345.94;4999130;28;101187;-48
2022/08/06 08:35:49;;;;;;;2.90;1.47;;;21.50;98.80;;;22.17;53.58;102356.88;5010910;28;98012;-45
2022/08/06 08:38:15;;;;;;;2.27;1.00;;;21.60;99.90;;;22.17;43.87;102350.63;5002119;28;96971;-46
2022/08/06 08:40:42;;;;;;;2.77;1.27;;;21.70;98.00;;;22.11;45.71;102351.84;5002928;28;97870;-47
2022/08/06 08:43:12;;;;;;;3.93;1.17;;;21.60;97.60;;;22.15;53.57;102348.03;5003765;28;99064;-45
2022/08/06 08:45:43;;;;;;;3.00;1.50;;;21.60;99.90;;;22.12;52.44;102348.19;4982335;28;97238;-46
2022/08/06 08:48:12;;;;;;;2.77;1.13;;;21.60;99.90;;;22.26;54.29;102348.25;4976312;28;102916;-45
2022/08/06 08:50:42;;;;;;;4.83;0.90;;;21.80;99.90;;;22.23;43.07;102340.38;4996253;28;96689;-46
2022/08/06 08:53:15;;;;;;;5.30;1.13;;;21.90;97.40;;;22.23;43.01;102339.50;5000351;28;97609;-49
2022/08/06 08:55:41;;;;;;;2.30;1.03;;;21.80;97.90;;;22.23;54.11;102350.25;5010672;28;97336;-45
2022/08/06 08:58:07;;;;;;;3.47;0.80;;;21.70;99.90;;;22.32;46.67;102349.75;4995470;28;96762;-47
2022/08/06 09:00:34;;;;;;;3.73;0.90;;;21.90;99.40;;;22.41;46.29;102348.31;4985526;28;97410;-45
2022/08/06 09:03:03;;;;;;;3.50;1.03;;;22.00;98.20;;;22.25;42.06;102345.66;5001440;28;97199;-44
2022/08/06 09:05:30;;;;;;;4.13;0.80;;;21.80;96.50;;;22.21;42.52;102347.66;5000587;28;100762;-45
2022/08/06 09:07:57;;;;;;;1.70;0.93;;;21.80;95.70;;;22.40;54.27;102341.22;4987331;28;97598;-49
2022/08/06 09:10:24;;;;;;;1.67;1.00;;;22.00;99.90;;;22.49;54.30;102348.75;5012362;28;97873;-47
2022/08/06 09:12:51;;;;;;;1.90;1.10;;;22.10;99.90;;;22.64;54.22;102349.66;4988355;28;98574;-49
2022/08/06 09:15:17;;;;;;;1.20;0.70;;;22.40;99.90;;;22.76;52.36;102349.78;5003336;28;97254;-47
2022/08/06 09:17:44;;;;;;;1.50;0.80;;;22.60;99.90;;;22.75;45.91;102342.69;5005640;28;96857;-44
2022/08/06 09:20:11;;;;;;;1.50;0.97;;;22.50;95.50;;;22.81;52.61;102344.97;4984052;28;97603;-44
2022/08/06 09:22:37;;;;;;;1.30;0.70;;;22.50;99.90;;;22.88;53.33;102348.22;5011986;28;97269;-46
2022/08/06 09:25:04;;;;;;;1.47;0.80;;;22.70;99.90;;;22.97;52.53;102353.03;5010256;28;96675;-44
2022/08/06 09:27:35;;;;;;;1.40;0.40;;;22.80;99.90;;;22.98;38.21;102351.19;5026008;28;96756;-44
2022/08/06 09:30:05;;;;;;;2.00;0.80;;;22.70;92.40;;;23.04;52.65;102349.00;5007143;28;97634;-44
2022/08/06 09:32:47;;;;;;;0.70;0.67;;;22.80;99.90;;;23.11;52.89;102349.47;5000617;28;97161;-46
2022/08/06 09:35:28;;;;;;;1.83;0.90;;;23.00;99.90;;;23.17;52.80;102350.94;5011649;28;97316;-43
2022/08/06 09:38:06;;;;;;;2.80;0.47;;;23.10;99.90;;;23.18;38.12;102345.47;5008107;28;104725;-42
2022/08/06 09:40:32;;;;;;;1.10;0.30;;;23.10;92.80;;;23.18;39.12;102347.28;5003105;28;100556;-43
2022/08/06 09:42:58;;;;;;;1.03;0.40;;;23.00;93.40;;;23.10;38.10;102347.75;4993846;28;97026;-43
2022/08/06 09:45:25;;;;;;;0.73;0.60;;;22.80;92.60;;;23.17;52.04;102354.50;4996707;28;98140;-44
2022/08/06 09:48:05;;;;;;;1.10;0.50;;;22.90;99.90;;;23.22;39.84;102351.50;4994195;28;97512;-44
2022/08/06 09:50:46;;;;;;;1.10;0.80;;;23.00;93.80;;;23.18;51.50;102342.78;5000478;28;102809;-45
2022/08/06 09:53:14;;;;;;;1.30;0.80;;;22.90;99.90;;;23.22;51.88;102347.00;5010363;28;97838;-44
2022/08/06 09:55:41;;;;;;;1.20;0.90;;;23.00;99.90;;;23.24;52.09;102349.59;4983903;28;96662;-46
2022/08/06 09:58:07;;;;;;;2.03;0.70;;;23.10;99.90;;;23.36;51.89;102344.31;4977906;28;97199;-49
2022/08/06 10:00:36;;;;;;;0.83;0.63;;;23.20;99.90;;;23.31;51.81;102351.81;5000849;28;97136;-44
2022/08/06 10:03:06;;;;;;;0.70;0.50;;;23.30;99.90;;;23.42;41.86;102343.91;4990527;28;99239;-45
2022/08/06 10:05:33;;;;;;;2.43;0.77;;;23.30;96.10;;;23.49;51.55;102348.91;4990215;28;96941;-43
2022/08/06 10:08:06;;;;;;;1.27;0.57;;;23.40;99.90;;;23.50;51.25;102347.94;5004229;28;99213;-45
2022/08/06 10:10:51;;;;;;;1.27;0.67;;;23.50;99.90;;;23.54;50.58;102341.41;4990710;28;96835;-44
2022/08/06 10:13:26;;;;;;;1.77;0.60;;;23.50;99.90;;;23.56;49.73;102351.09;4994633;28;97471;-45
2022/08/06 10:15:58;;;;;;;1.47;0.57;;;23.50;99.90;;;23.54;48.71;102346.78;5005439;28;97295;-46
2022/08/06 10:18:41;;;;;;;1.93;0.53;;;23.40;98.60;;;23.55;37.04;102348.50;5001741;28;96967;-43
2022/08/06 10:21:11;;;;;;;1.55;0.50;;;23.40;91.50;;;23.52;37.06;102348.72;4993051;28;97085;-45
2022/08/06 10:23:40;;;;;;;2.33;0.70;;;23.30;91.40;;;23.57;50.46;102349.28;5003979;28;98787;-46
2022/08/06 10:26:12;;;;;;;1.13;0.70;;;23.40;99.90;;;23.55;39.04;102353.91;5001759;28;96758;-45
2022/08/06 10:28:41;;;;;;;0.93;0.57;;;23.40;93.50;;;23.56;51.17;102352.94;5003643;28;97029;-47
2022/08/06 10:31:14;;;;;;;1.13;0.73;;;23.40;99.90;;;23.50;51.49;102356.03;4996972;28;97528;-47
2022/08/06 10:34:12;;;;;;;3.50;0.50;;;23.50;99.90;;;23.60;46.55;102358.09;5011967;28;97241;-53
2022/08/06 10:36:45;;;;;;;1.25;0.43;;;23.50;90.90;;;23.62;40.92;102355.28;5002429;28;97093;-49
2022/08/06 10:39:14;;;;;;;0.93;0.50;;;23.50;91.50;;;23.41;33.70;102347.56;4984091;28;97182;-45